Time;durP1;ratioP1;P1;durP2;ratioP2;P2;SDS_P1;SDS_P2;PMS_P1;PMS_P2;Temp;Humidity;BMP_temperature;BMP_pressure;BME280_temperature;BME280_humidity;BME280_pressure;Samples;Min_cycle;Max_cycle;Signal;HPM_P1;HPM_P2
2022/11/02 00:00:26;;;;;;;6.20;1.88;;;;;;;15.72;59.68;101372.25;5088338;28;20048;-64
2022/11/02 00:02:54;;;;;;;7.25;1.60;;;;;;;15.73;59.74;101362.22;5085788;28;20055;-64
2022/11/02 00:05:23;;;;;;;7.75;2.10;;;;;;;15.72;59.58;101357.88;5087348;28;20113;-65
2022/11/02 00:07:52;;;;;;;4.65;1.52;;;;;;;15.71;59.69;101359.75;5089608;28;20058;-65
2022/11/02 00:10:21;;;;;;;9.77;1.92;;;;;;;15.71;59.49;101353.53;5086114;28;20142;-65
2022/11/02 00:12:51;;;;;;;12.75;2.72;;;;;;;15.70;59.74;101355.41;5086459;28;20049;-65
2022/11/02 00:15:19;;;;;;;9.00;1.75;;;;;;;15.69;59.50;101359.19;5093092;28;20036;-64
2022/11/02 00:17:50;;;;;;;6.68;2.22;;;;;;;15.70;59.75;101354.59;5083821;28;20048;-64
2022/11/02 00:20:19;;;;;;;6.35;1.98;;;;;;;15.69;59.31;101358.34;5095296;28;20044;-63
2022/11/02 00:22:49;;;;;;;7.22;1.52;;;;;;;15.69;59.64;101361.06;5100699;28;20058;-64
2022/11/02 00:25:21;;;;;;;7.10;2.03;;;;;;;15.68;59.60;101365.66;5090929;28;20064;-64
2022/11/02 00:27:50;;;;;;;10.13;2.50;;;;;;;15.67;59.44;101365.91;5092574;28;20059;-64
2022/11/02 00:30:18;;;;;;;7.20;2.22;;;;;;;15.67;59.46;101353.19;5094609;28;20625;-64
2022/11/02 00:32:45;;;;;;;6.95;2.08;;;;;;;15.68;59.34;101362.13;5088155;28;20048;-64
2022/11/02 00:35:13;;;;;;;3.92;1.58;;;;;;;15.72;59.53;101363.28;5091051;28;20043;-65
2022/11/02 00:37:41;;;;;;;6.57;1.50;;;;;;;15.71;59.48;101373.31;5091803;28;20044;-65
2022/11/02 00:40:10;;;;;;;6.25;1.73;;;;;;;15.70;59.54;101366.25;5092159;28;20109;-64
2022/11/02 00:42:37;;;;;;;7.38;1.60;;;;;;;15.67;59.36;101372.16;5084366;28;20062;-64
2022/11/02 00:45:08;;;;;;;6.80;1.70;;;;;;;15.65;59.60;101368.84;5090775;28;20047;-64
2022/11/02 00:47:36;;;;;;;7.93;1.77;;;;;;;15.64;59.65;101372.63;5093813;28;20044;-64
2022/11/02 00:50:04;;;;;;;8.27;2.00;;;;;;;15.62;59.59;101370.16;5100270;28;20056;-64
2022/11/02 00:52:32;;;;;;;7.68;3.17;;;;;;;15.71;60.19;101370.59;5094706;28;20052;-64
2022/11/02 00:55:00;;;;;;;7.65;2.38;;;;;;;15.66;59.60;101378.63;5094889;28;20075;-65
2022/11/02 00:57:27;;;;;;;4.00;1.35;;;;;;;15.63;59.83;101382.66;5084443;28;20049;-65
2022/11/02 00:59:55;;;;;;;8.48;1.90;;;;;;;15.63;59.53;101379.13;5094084;28;20051;-65
2022/11/02 01:02:24;;;;;;;7.57;1.42;;;;;;;15.61;59.26;101381.25;5092818;28;20047;-65
2022/11/02 01:04:52;;;;;;;8.13;1.42;;;;;;;15.62;59.42;101385.59;5096598;28;20112;-65
2022/11/02 01:07:20;;;;;;;7.45;1.77;;;;;;;15.60;59.55;101388.56;5095036;28;20412;-65
2022/11/02 01:09:48;;;;;;;8.02;1.90;;;;;;;15.60;59.31;101393.19;5093752;28;20059;-64
2022/11/02 01:12:15;;;;;;;11.63;1.75;;;;;;;15.59;59.60;101378.81;5084557;28;20048;-64
2022/11/02 01:14:44;;;;;;;11.05;2.03;;;;;;;15.59;59.30;101402.38;5084104;28;20056;-65
2022/11/02 01:17:11;;;;;;;3.83;1.40;;;;;;;15.58;59.34;101395.31;5085418;28;20433;-65
2022/11/02 01:19:40;;;;;;;4.70;1.58;;;;;;;15.57;59.63;101391.78;5086659;28;20067;-65
2022/11/02 01:22:08;;;;;;;5.80;1.63;;;;;;;15.57;58.49;101399.09;5104653;28;20048;-65
2022/11/02 01:24:36;;;;;;;8.95;1.70;;;;;;;15.56;59.19;101400.94;5086470;28;20040;-65
2022/11/02 01:27:04;;;;;;;8.70;2.78;;;;;;;15.55;58.78;101407.41;5090923;28;20048;-66
2022/11/02 01:29:31;;;;;;;6.95;1.80;;;;;;;15.54;58.91;101407.66;5095346;28;20059;-64
2022/11/02 01:31:59;;;;;;;6.50;1.75;;;;;;;15.52;58.45;101407.06;5101767;28;20059;-64
2022/11/02 01:34:27;;;;;;;8.27;1.65;;;;;;;15.51;58.47;101397.31;5097006;28;20048;-64
2022/11/02 01:36:56;;;;;;;7.22;1.35;;;;;;;15.51;58.65;101400.84;5091939;28;20078;-64
2022/11/02 01:39:23;;;;;;;8.35;1.52;;;;;;;15.51;58.08;101405.44;5099825;28;20048;-64
2022/11/02 01:41:52;;;;;;;7.35;1.98;;;;;;;15.49;58.58;101411.09;5089170;28;20051;-64
2022/11/02 01:44:29;;;;;;;8.95;2.05;;;;;;;15.49;58.26;101399.44;5087911;28;20052;-64
2022/11/02 01:47:01;;;;;;;7.25;1.48;;;;;;;15.48;58.37;101411.31;5088476;28;20036;-65
2022/11/02 01:49:32;;;;;;;8.30;1.80;;;;;;;15.49;58.45;101418.41;5095587;28;20511;-64
2022/11/02 01:52:06;;;;;;;7.82;2.03;;;;;;;15.46;58.13;101410.75;5091539;28;20147;-65
2022/11/02 01:54:39;;;;;;;5.60;1.42;;;;;;;15.44;58.19;101413.69;5097276;28;20050;-65
2022/11/02 01:57:10;;;;;;;6.35;1.85;;;;;;;15.44;58.41;101416.41;5094980;28;20048;-64
2022/11/02 01:59:44;;;;;;;8.70;1.80;;;;;;;15.44;58.36;101415.59;5090953;28;20048;-65
2022/11/02 02:02:17;;;;;;;7.00;1.42;;;;;;;15.42;58.21;101421.25;5099047;28;20040;-65
2022/11/02 02:04:49;;;;;;;8.40;1.50;;;;;;;15.41;58.15;101416.06;5090839;28;20116;-65
2022/11/02 02:07:19;;;;;;;5.55;1.40;;;;;;;15.40;58.50;101420.66;5093943;28;20166;-65
2022/11/02 02:09:47;;;;;;;5.32;1.60;;;;;;;15.39;58.68;101424.44;5094153;28;20047;-65
2022/11/02 02:12:19;;;;;;;3.88;1.38;;;;;;;15.40;58.73;101428.78;5094949;28;20044;-64
2022/11/02 02:14:47;;;;;;;6.47;1.92;;;;;;;15.39;58.77;101423.59;5094995;28;20051;-64
2022/11/02 02:17:28;;;;;;;5.63;1.40;;;;;;;15.37;58.71;101431.97;5099456;28;20534;-64
2022/11/02 02:20:02;;;;;;;7.15;1.60;;;;;;;15.36;58.75;101422.19;5089790;28;20060;-64
2022/11/02 02:23:13;;;;;;;6.47;1.67;;;;;;;15.35;58.80;101434.09;5092091;28;20540;-65
2022/11/02 02:26:02;;;;;;;7.85;1.98;;;;;;;15.35;58.64;101435.97;5030445;28;20058;-64
2022/11/02 02:28:40;;;;;;;6.15;1.55;;;;;;;15.34;58.59;101428.91;5031552;28;20241;-65
2022/11/02 02:31:15;;;;;;;4.88;1.30;;;;;;;15.33;58.66;101436.22;5033742;28;20049;-64
2022/11/02 02:33:48;;;;;;;8.10;1.80;;;;;;;15.32;58.70;101444.59;5029099;28;20050;-64
2022/11/02 02:36:23;;;;;;;4.80;1.58;;;;;;;15.31;58.64;101435.63;5028355;28;20045;-65
2022/11/02 02:39:00;;;;;;;5.72;1.50;;;;;;;15.30;58.72;101431.28;5032871;28;20080;-64
2022/11/02 02:41:36;;;;;;;9.52;2.03;;;;;;;15.29;58.80;101427.75;5028322;28;20053;-65
2022/11/02 02:44:06;;;;;;;;;;;;;;;15.29;58.65;101427.75;5037458;28;20052;-65
2022/11/02 02:46:40;;;;;;;11.43;2.65;;;;;;;15.28;58.73;101439.66;5027376;28;19921;-65
2022/11/02 02:49:14;;;;;;;6.03;1.70;;;;;;;15.28;58.50;101444.22;5028074;28;20108;-65
2022/11/02 02:51:44;;;;;;;7.15;1.88;;;;;;;15.25;58.55;101434.69;5028666;28;20064;-65
2022/11/02 02:54:14;;;;;;;7.72;1.65;;;;;;;15.26;58.46;101430.09;5033050;28;20041;-65
2022/11/02 02:56:47;;;;;;;6.47;1.50;;;;;;;15.28;58.87;101436.09;5032633;28;20442;-64
2022/11/02 02:59:23;;;;;;;7.28;1.80;;;;;;;15.26;58.99;101440.94;5030063;28;20050;-65
2022/11/02 03:01:50;;;;;;;7.95;1.63;;;;;;;15.26;58.75;101440.94;5081045;28;20052;-64
2022/11/02 03:04:18;;;;;;;9.30;2.00;;;;;;;15.23;58.48;101438.72;5088685;28;20040;-65
2022/11/02 03:06:51;;;;;;;7.18;1.65;;;;;;;15.22;58.52;101448.72;5086307;28;20047;-65
2022/11/02 03:09:27;;;;;;;9.57;1.98;;;;;;;15.21;58.19;101446.25;5094755;28;20047;-65
2022/11/02 03:12:08;;;;;;;11.45;2.38;;;;;;;15.25;59.12;101444.72;5091989;28;20047;-64
2022/11/02 03:14:53;;;;;;;10.68;2.30;;;;;;;15.24;58.42;101443.06;5096981;28;20063;-64
2022/11/02 03:17:29;;;;;;;8.20;1.65;;;;;;;15.21;58.42;101455.19;5095022;28;20056;-64
2022/11/02 03:20:02;;;;;;;;;;;;;;;15.21;58.44;101449.78;5090648;28;20428;-64
2022/11/02 03:22:34;;;;;;;8.18;2.05;;;;;;;15.19;57.64;101457.31;5092747;28;19920;-64
2022/11/02 03:25:12;;;;;;;14.88;3.35;;;;;;;15.19;57.98;101460.03;5085105;28;20048;-64
2022/11/02 03:27:50;;;;;;;9.27;1.70;;;;;;;15.17;58.25;101470.28;5090664;28;20168;-64
2022/11/02 03:30:22;;;;;;;8.23;1.73;;;;;;;15.15;58.29;101466.16;5096090;28;20048;-66
2022/11/02 03:32:56;;;;;;;10.77;2.75;;;;;;;15.12;57.80;101472.88;5094006;28;20056;-65
2022/11/02 03:35:33;;;;;;;9.00;1.95;;;;;;;15.14;58.00;101475.34;5086025;28;20036;-65
2022/11/02 03:38:05;;;;;;;10.50;1.60;;;;;;;15.14;58.19;101478.03;5090100;28;20048;-64
2022/11/02 03:40:38;;;;;;;7.47;1.70;;;;;;;15.13;58.02;101477.22;5090144;28;20101;-65
2022/11/02 03:43:07;;;;;;;11.57;2.22;;;;;;;15.11;58.12;101476.63;5090538;28;20044;-65
2022/11/02 03:45:40;;;;;;;7.22;1.80;;;;;;;15.13;58.25;101487.22;5091625;28;20044;-65
2022/11/02 03:48:11;;;;;;;11.10;2.13;;;;;;;15.09;57.73;101484.16;5088541;28;20052;-65
2022/11/02 03:50:46;;;;;;;7.22;1.70;;;;;;;15.09;58.09;101489.56;5094270;28;20056;-64
2022/11/02 03:53:21;;;;;;;8.23;1.73;;;;;;;15.09;58.03;101488.75;5088544;28;20077;-64
2022/11/02 03:55:54;;;;;;;11.15;2.03;;;;;;;15.07;57.92;101496.28;5085442;28;20044;-65
2022/11/02 03:58:21;;;;;;;10.45;1.98;;;;;;;15.07;57.75;101496.28;5095978;28;20310;-64
2022/11/02 04:00:54;;;;;;;8.25;2.67;;;;;;;15.06;58.05;101498.16;5093942;28;20059;-64
2022/11/02 04:03:24;;;;;;;10.02;2.63;;;;;;;15.07;58.45;101502.53;5086238;28;20059;-65
2022/11/02 04:05:51;;;;;;;10.05;2.05;;;;;;;15.07;58.39;101504.41;5094975;28;20051;-65
2022/11/02 04:08:25;;;;;;;8.77;2.78;;;;;;;15.04;58.42;101505.69;5099281;28;20056;-65
2022/11/02 04:16:24;;;;;;;9.85;1.85;;;;;;;15.04;58.39;101521.13;5002948;28;20122;-64
2022/11/02 04:25:14;;;;;;;5.80;1.60;;;;;;;15.01;58.09;101535.13;5019871;28;20057;-65
2022/11/02 04:27:13;;;;;;;7.38;2.08;;;;;;;15.00;58.51;101545.13;5012431;28;20054;-65
2022/11/02 04:29:47;;;;;;;11.93;2.47;;;;;;;14.98;58.16;101548.06;5006208;28;20479;-65
2022/11/02 04:33:31;;;;;;;12.60;2.97;;;;;;;14.98;58.19;101550.78;5009024;28;20053;-65
2022/11/02 04:35:04;;;;;;;10.38;2.33;;;;;;;14.93;58.62;101547.13;5008183;28;20364;-65
2022/11/02 04:40:17;;;;;;;10.00;2.03;;;;;;;14.97;58.33;101559.13;5010606;28;20050;-65
2022/11/02 04:42:46;;;;;;;11.05;2.08;;;;;;;14.97;58.59;101561.84;5008112;28;20137;-63
2022/11/02 04:45:14;;;;;;;6.25;2.60;;;;;;;14.94;58.72;101557.72;5010974;28;20042;-64
2022/11/02 04:47:43;;;;;;;9.88;2.40;;;;;;;14.95;58.28;101581.03;5014325;28;20061;-64
2022/11/02 04:50:11;;;;;;;8.13;1.90;;;;;;;14.94;58.51;101582.06;5002226;28;20054;-64
2022/11/02 04:52:39;;;;;;;6.53;1.95;;;;;;;15.00;59.08;101584.91;5013401;28;20061;-64
2022/11/02 04:55:07;;;;;;;7.22;2.10;;;;;;;14.96;58.43;101590.78;5087854;28;20136;-64
2022/11/02 04:57:35;;;;;;;10.88;2.35;;;;;;;14.94;58.55;101597.50;5096172;28;20048;-64
2022/11/02 05:00:06;;;;;;;6.43;1.85;;;;;;;14.93;58.67;101612.91;5094476;28;20048;-64
2022/11/02 05:02:33;;;;;;;8.20;2.70;;;;;;;14.92;58.15;101610.44;5088985;28;20171;-64
2022/11/02 05:05:04;;;;;;;12.45;2.47;;;;;;;14.91;58.01;101611.50;5092528;28;20115;-64
2022/11/02 05:07:32;;;;;;;12.25;2.17;;;;;;;14.91;58.27;101615.03;5088323;28;20390;-64
2022/11/02 05:10:00;;;;;;;11.18;2.35;;;;;;;14.90;58.01;101609.84;5096403;28;20063;-64
2022/11/02 05:12:28;;;;;;;7.93;1.75;;;;;;;14.90;58.10;101623.38;5093487;28;20056;-64
2022/11/02 05:14:56;;;;;;;10.68;2.47;;;;;;;14.89;58.07;101613.59;5100001;28;20052;-64
2022/11/02 05:17:23;;;;;;;11.70;2.42;;;;;;;14.88;58.14;101628.19;5099212;28;20040;-64
2022/11/02 05:19:51;;;;;;;9.10;2.13;;;;;;;14.85;58.05;101624.06;5094588;28;20048;-64
2022/11/02 05:22:21;;;;;;;8.35;2.05;;;;;;;14.86;58.03;101633.00;5092150;28;20059;-65
2022/11/02 05:24:48;;;;;;;10.52;2.10;;;;;;;14.85;58.19;101636.78;5092458;28;20635;-64
2022/11/02 05:27:16;;;;;;;11.32;2.47;;;;;;;14.83;57.86;101642.41;5091019;28;20527;-65
2022/11/02 05:29:44;;;;;;;8.93;1.90;;;;;;;14.83;57.94;101653.25;5093850;28;20497;-65
2022/11/02 05:32:11;;;;;;;10.77;2.40;;;;;;;14.82;57.71;101650.75;5095434;28;20044;-64
2022/11/02 05:34:39;;;;;;;9.85;2.10;;;;;;;14.80;57.62;101656.41;5093051;28;20052;-65
2022/11/02 05:37:07;;;;;;;10.00;1.73;;;;;;;14.80;57.69;101663.69;5089527;28;20052;-64
2022/11/02 05:39:36;;;;;;;13.55;2.67;;;;;;;14.78;57.35;101666.63;5087757;28;20052;-64
2022/11/02 05:42:04;;;;;;;9.75;3.08;;;;;;;14.78;57.33;101673.94;5092360;28;20071;-64
2022/11/02 05:44:31;;;;;;;11.88;2.50;;;;;;;14.77;57.42;101680.41;5091180;28;20051;-64
2022/11/02 05:46:59;;;;;;;12.90;2.60;;;;;;;14.76;57.12;101673.34;5091202;28;20067;-64
2022/11/02 05:49:27;;;;;;;11.85;2.00;;;;;;;14.75;57.65;101683.34;5096330;28;20048;-64
2022/11/02 05:51:54;;;;;;;6.07;1.73;;;;;;;14.74;57.61;101692.50;5086345;28;20041;-64
2022/11/02 05:54:23;;;;;;;12.30;2.53;;;;;;;14.74;57.28;101686.25;5090145;28;20578;-64
2022/11/02 05:56:52;;;;;;;8.93;2.05;;;;;;;14.73;57.39;101685.44;5094427;28;20043;-64
2022/11/02 05:59:19;;;;;;;11.82;2.33;;;;;;;14.73;57.94;101706.25;5094538;28;20049;-64
2022/11/02 06:01:47;;;;;;;12.07;2.35;;;;;;;14.74;57.84;101705.22;5090101;28;20055;-65
2022/11/02 06:04:15;;;;;;;11.02;2.45;;;;;;;14.72;57.50;101713.56;5096466;28;20070;-67
2022/11/02 06:06:43;;;;;;;14.90;2.60;;;;;;;14.72;57.55;101708.13;5088589;28;21649;-66
2022/11/02 06:09:11;;;;;;;9.43;2.25;;;;;;;14.70;57.69;101712.94;5092000;28;20044;-64
2022/11/02 06:11:38;;;;;;;10.85;2.38;;;;;;;14.69;57.70;101724.84;5086497;28;20064;-65
2022/11/02 06:14:08;;;;;;;10.20;2.70;;;;;;;14.78;57.70;101723.47;5104412;28;20052;-64
2022/11/02 06:16:35;;;;;;;6.28;1.90;;;;;;;14.73;57.74;101730.63;5090833;28;20729;-65
2022/11/02 06:19:03;;;;;;;10.32;2.92;;;;;;;14.76;57.40;101724.75;5093901;28;20409;-65
2022/11/02 06:21:31;;;;;;;12.07;3.05;;;;;;;14.69;58.30;101724.84;5087947;28;20116;-65
2022/11/02 06:23:59;;;;;;;10.13;2.22;;;;;;;14.69;57.65;101727.53;5096954;28;20047;-64
2022/11/02 06:26:26;;;;;;;8.10;2.17;;;;;;;14.67;58.03;101742.34;5086324;28;20076;-65
2022/11/02 06:28:54;;;;;;;14.25;3.15;;;;;;;14.87;58.46;101732.09;5102122;28;20513;-62
2022/11/02 06:31:23;;;;;;;9.25;2.63;;;;;;;14.76;57.48;101751.81;5091785;28;20607;-64
2022/11/02 06:33:51;;;;;;;14.65;3.25;;;;;;;14.71;57.73;101757.91;5094203;28;20409;-64
2022/11/02 06:36:19;;;;;;;11.50;2.13;;;;;;;14.67;57.53;101762.09;5089092;28;20059;-64
2022/11/02 06:38:46;;;;;;;7.68;2.42;;;;;;;14.66;57.61;101782.09;5086527;28;20066;-63
2022/11/02 06:41:14;;;;;;;8.93;1.90;;;;;;;14.71;57.72;101771.44;5096632;28;20048;-64
2022/11/02 06:43:42;;;;;;;10.27;1.98;;;;;;;14.65;57.95;101775.03;5088781;28;20048;-64
2022/11/02 06:46:09;;;;;;;8.38;1.80;;;;;;;14.61;58.15;101780.06;5101750;28;20044;-65
2022/11/02 06:48:39;;;;;;;15.10;2.15;;;;;;;14.60;57.69;101791.94;5094281;28;20045;-66
2022/11/02 06:51:06;;;;;;;6.35;1.83;;;;;;;14.61;58.06;101798.19;5091213;28;20585;-65
2022/11/02 06:53:34;;;;;;;6.85;1.67;;;;;;;14.60;58.10;101807.34;5097581;28;20055;-69
2022/11/02 06:56:02;;;;;;;7.32;1.92;;;;;;;14.59;57.80;101814.66;5104776;28;20048;-66
2022/11/02 06:58:30;;;;;;;15.48;2.28;;;;;;;14.57;57.79;101824.88;5095735;28;20383;-66
2022/11/02 07:01:00;;;;;;;8.23;1.73;;;;;;;14.57;57.78;101835.69;5096223;28;20048;-64
2022/11/02 07:03:28;;;;;;;11.60;2.42;;;;;;;14.55;57.99;101837.78;5101271;28;20044;-66
2022/11/02 07:05:57;;;;;;;11.35;2.40;;;;;;;14.56;58.64;101834.03;5094331;28;20048;-65
2022/11/02 07:08:26;;;;;;;7.13;1.95;;;;;;;14.57;58.45;101843.81;4734756;28;10000579;-64
2022/11/02 07:10:54;;;;;;;6.63;2.15;;;;;;;14.53;57.59;101845.28;5088366;28;20056;-68
2022/11/02 07:13:22;;;;;;;9.73;1.80;;;;;;;14.49;58.22;101859.50;5089749;28;20082;-63
2022/11/02 07:15:52;;;;;;;12.32;2.17;;;;;;;14.79;58.86;101867.72;5085996;28;20052;-64
2022/11/02 07:18:23;;;;;;;11.45;2.03;;;;;;;14.72;58.09;101875.09;5084239;28;20086;-64
2022/11/02 07:20:51;;;;;;;17.92;2.88;;;;;;;14.58;57.99;101893.31;5093720;28;20072;-64
2022/11/02 07:23:22;;;;;;;14.32;2.20;;;;;;;14.54;58.26;101889.41;5094478;28;20055;-64
2022/11/02 07:25:50;;;;;;;7.70;2.42;;;;;;;14.52;58.29;101899.63;5099860;28;20064;-64
2022/11/02 07:28:18;;;;;;;8.80;2.10;;;;;;;14.48;58.33;101891.13;5101284;28;20055;-64
2022/11/02 07:30:47;;;;;;;7.93;2.10;;;;;;;14.48;58.18;101891.13;5085736;28;20052;-63
2022/11/02 07:33:14;;;;;;;11.43;2.55;;;;;;;14.47;58.18;101897.59;5088257;28;20044;-64
2022/11/02 07:35:42;;;;;;;12.55;2.40;;;;;;;14.47;58.22;101894.88;5085433;28;20049;-64
2022/11/02 07:38:10;;;;;;;9.55;2.50;;;;;;;14.55;58.20;101894.59;5084926;28;20245;-64
2022/11/02 07:40:40;;;;;;;9.07;2.10;;;;;;;14.55;58.31;101904.59;5085457;28;20074;-63
2022/11/02 07:43:07;;;;;;;14.10;2.42;;;;;;;14.51;58.45;101900.66;5091285;28;20369;-64
2022/11/02 07:45:36;;;;;;;12.68;2.28;;;;;;;14.48;58.23;101907.34;5085834;28;20054;-63
2022/11/02 07:48:04;;;;;;;9.95;2.05;;;;;;;14.47;58.37;101904.88;5091449;28;20051;-63
2022/11/02 07:50:31;;;;;;;9.02;2.10;;;;;;;14.46;58.53;101916.75;5088784;28;20136;-67
2022/11/02 07:52:59;;;;;;;7.90;1.92;;;;;;;14.49;58.81;101913.59;5088288;28;20052;-64
2022/11/02 07:55:29;;;;;;;10.63;2.70;;;;;;;14.64;58.27;101923.03;5094090;28;20044;-62
2022/11/02 07:58:00;;;;;;;9.30;2.13;;;;;;;14.56;58.60;101926.00;5080464;28;20058;-63
2022/11/02 08:00:29;;;;;;;9.35;1.75;;;;;;;14.62;58.97;101927.81;5081419;28;20074;-70
2022/11/02 08:02:58;;;;;;;11.32;2.30;;;;;;;14.57;57.96;101929.53;5097779;28;20142;-65
2022/11/02 08:05:27;;;;;;;11.75;1.63;;;;;;;14.48;58.20;101931.69;5087744;28;20048;-64
2022/11/02 08:07:58;;;;;;;8.25;2.28;;;;;;;14.45;58.48;101934.00;5086646;28;20072;-64
2022/11/02 08:10:27;;;;;;;7.45;2.47;;;;;;;14.44;58.79;101930.47;5101218;28;20153;-64
2022/11/02 08:12:56;;;;;;;9.25;1.95;;;;;;;14.43;58.80;101930.69;5092187;28;20055;-64
2022/11/02 08:15:26;;;;;;;10.38;2.53;;;;;;;14.43;58.74;101934.25;5090235;28;20554;-63
2022/11/02 08:18:00;;;;;;;7.78;1.90;;;;;;;14.45;58.72;101934.00;5087188;28;20040;-64
2022/11/02 08:20:29;;;;;;;6.25;1.92;;;;;;;14.44;59.11;101941.31;5093940;28;20046;-64
2022/11/02 08:22:57;;;;;;;8.82;2.50;;;;;;;14.43;58.98;101950.47;5093842;28;20055;-63
2022/11/02 08:25:25;;;;;;;8.73;2.50;;;;;;;14.43;58.69;101955.03;5084493;28;20058;-63
2022/11/02 08:27:56;;;;;;;13.32;2.67;;;;;;;14.44;58.81;101962.13;5084556;28;20048;-64
2022/11/02 08:30:25;;;;;;;5.53;1.45;;;;;;;14.45;58.87;101953.78;5085666;28;20051;-63
2022/11/02 08:32:53;;;;;;;11.43;2.10;;;;;;;14.47;59.64;101959.78;5085551;28;20049;-63
2022/11/02 08:35:24;;;;;;;7.80;2.10;;;;;;;14.45;58.56;101959.19;5086217;28;20478;-63
2022/11/02 08:37:55;;;;;;;7.88;2.05;;;;;;;14.42;58.95;101958.81;5091703;28;20044;-63
2022/11/02 08:40:23;;;;;;;10.35;1.95;;;;;;;14.45;59.23;101961.91;5086483;28;20043;-64
2022/11/02 08:42:55;;;;;;;11.93;2.50;;;;;;;14.40;58.78;101950.88;5084600;28;20047;-65
2022/11/02 08:45:25;;;;;;;12.25;2.40;;;;;;;14.42;59.09;101961.50;5087188;28;20040;-64
2022/11/02 08:47:52;;;;;;;9.75;2.20;;;;;;;14.42;59.15;101958.81;5087805;28;20408;-64
2022/11/02 08:50:20;;;;;;;13.55;2.80;;;;;;;14.40;58.95;101972.50;5084206;28;20058;-65
2022/11/02 08:52:48;;;;;;;11.95;2.80;;;;;;;14.42;59.21;101978.56;5089082;28;20058;-64
2022/11/02 08:55:16;;;;;;;13.05;2.15;;;;;;;14.41;59.22;101973.34;5091767;28;20071;-63
2022/11/02 08:57:47;;;;;;;9.40;2.22;;;;;;;14.40;59.22;101977.91;5086959;28;20040;-64
2022/11/02 09:00:15;;;;;;;9.07;2.30;;;;;;;14.41;59.04;101979.56;5090288;28;20044;-63
2022/11/02 09:02:44;;;;;;;9.00;1.98;;;;;;;14.42;59.27;101978.56;5089684;28;21943;-64
2022/11/02 09:05:12;;;;;;;9.35;2.00;;;;;;;14.42;59.01;101975.03;5086060;28;20044;-64
2022/11/02 09:07:40;;;;;;;10.02;2.17;;;;;;;14.41;58.81;101984.16;5087448;28;20048;-64
2022/11/02 09:10:08;;;;;;;19.05;2.88;;;;;;;14.45;59.01;101980.00;5087102;28;20048;-64
2022/11/02 09:12:36;;;;;;;8.52;2.38;;;;;;;14.40;59.22;101980.63;5100710;28;20045;-64
2022/11/02 09:15:04;;;;;;;18.48;2.67;;;;;;;14.40;58.77;101983.34;5095452;28;20139;-64
2022/11/02 09:17:31;;;;;;;11.65;2.33;;;;;;;14.40;58.77;101985.22;5084424;28;20067;-63
2022/11/02 09:20:01;;;;;;;11.07;2.30;;;;;;;14.39;59.25;101987.09;5091683;28;20079;-64
2022/11/02 09:22:28;;;;;;;13.10;2.40;;;;;;;14.40;58.69;101985.22;5093968;28;20052;-63
2022/11/02 09:24:56;;;;;;;12.43;2.60;;;;;;;14.49;59.61;101986.63;5091910;28;20056;-63
2022/11/02 09:27:24;;;;;;;13.25;3.05;;;;;;;14.44;59.18;101987.28;5091509;28;20134;-61
2022/11/02 09:29:51;;;;;;;12.70;2.63;;;;;;;14.45;59.68;101991.66;5102523;28;20055;-63
2022/11/02 09:32:19;;;;;;;6.80;2.15;;;;;;;14.45;59.52;101982.72;5098188;28;20055;-63
2022/11/02 09:34:49;;;;;;;11.15;2.20;;;;;;;14.55;59.47;101996.56;5096331;28;20166;-63
2022/11/02 09:37:18;;;;;;;9.57;2.30;;;;;;;14.50;59.75;101996.41;5089970;28;20048;-62
2022/11/02 09:39:46;;;;;;;8.35;1.90;;;;;;;14.45;59.14;101991.66;5085384;28;20062;-63
2022/11/02 09:42:20;;;;;;;10.10;2.75;;;;;;;14.44;59.30;101997.28;5085701;28;20049;-64
2022/11/02 09:44:53;;;;;;;12.50;2.33;;;;;;;14.45;59.70;102005.16;5086761;28;20044;-62
2022/11/02 09:47:22;;;;;;;14.88;2.67;;;;;;;14.46;59.30;102003.28;5092223;28;20040;-64
2022/11/02 09:50:17;;;;;;;10.90;2.50;;;;;;;14.59;59.39;101995.06;5083263;28;20053;-64
2022/11/02 09:52:53;;;;;;;9.40;2.50;;;;;;;14.53;59.21;102002.19;5093128;28;20079;-64
2022/11/02 09:55:27;;;;;;;10.23;2.27;;;;;;;14.55;58.89;102005.50;5088086;28;20067;-64
2022/11/02 09:58:01;;;;;;;9.10;2.30;;;;;;;14.51;59.35;102006.16;5091465;28;20140;-64
2022/11/02 10:00:35;;;;;;;8.90;2.33;;;;;;;14.49;59.29;102005.56;5087833;28;20101;-65
2022/11/02 10:03:17;;;;;;;13.93;2.58;;;;;;;14.50;59.53;102009.94;5087249;28;20052;-64
2022/11/02 10:05:51;;;;;;;6.35;1.95;;;;;;;14.56;59.23;102009.88;5096250;28;20065;-64
2022/11/02 10:08:30;;;;;;;11.50;2.40;;;;;;;14.55;59.47;102019.03;5100400;28;20144;-64
2022/11/02 10:11:07;;;;;;;8.43;2.22;;;;;;;14.54;59.60;102017.38;5089730;28;20139;-64
2022/11/02 10:13:39;;;;;;;9.88;2.10;;;;;;;14.55;59.28;102026.31;5099924;28;20064;-62
2022/11/02 10:16:13;;;;;;;11.40;2.95;;;;;;;14.61;59.93;102030.88;5087032;28;20065;-63
2022/11/02 10:18:42;;;;;;;11.00;2.20;;;;;;;14.73;59.64;102028.28;5095898;28;20051;-63
2022/11/02 10:21:13;;;;;;;18.75;4.05;;;;;;;14.63;58.80;102035.00;5105532;28;20048;-64
2022/11/02 10:23:49;;;;;;;16.75;3.25;;;;;;;14.72;59.21;102040.97;5091118;28;20056;-62
2022/11/02 10:26:19;;;;;;;14.10;2.58;;;;;;;14.71;59.23;102042.03;5088793;28;20052;-64
2022/11/02 10:28:50;;;;;;;14.38;2.55;;;;;;;14.73;58.50;102039.94;5090903;28;20056;-64
2022/11/02 10:31:25;;;;;;;9.60;2.22;;;;;;;14.69;58.62;102043.28;5092346;28;20048;-65
2022/11/02 10:33:55;;;;;;;11.93;2.28;;;;;;;14.68;58.37;102042.47;5091422;28;20049;-65
2022/11/02 10:36:41;;;;;;;12.57;2.75;;;;;;;14.77;58.54;102037.59;5091559;28;20055;-65
2022/11/02 10:39:26;;;;;;;9.13;2.40;;;;;;;14.72;58.40;102037.44;5088620;28;20120;-64
2022/11/02 10:42:06;;;;;;;8.57;1.83;;;;;;;14.71;58.75;102042.03;5091914;28;20040;-65
2022/11/02 10:44:50;;;;;;;9.20;2.53;;;;;;;14.74;58.65;102046.16;5087306;28;20048;-63
2022/11/02 10:47:20;;;;;;;10.13;2.20;;;;;;;14.74;58.58;102038.88;5086281;28;20052;-64
2022/11/02 10:50:17;;;;;;;10.38;2.20;;;;;;;14.75;58.54;102050.53;5096335;28;20509;-64
2022/11/02 10:52:46;;;;;;;9.07;2.58;;;;;;;14.78;58.81;102034.69;5073146;28;20079;-64
2022/11/02 10:55:26;;;;;;;11.80;3.38;;;;;;;14.81;58.80;102044.25;5099012;28;20045;-64
2022/11/02 10:57:58;;;;;;;10.15;2.22;;;;;;;14.81;58.80;102049.66;5096934;28;20058;-64
2022/11/02 11:00:29;;;;;;;12.27;3.15;;;;;;;14.81;58.19;102055.91;5087286;28;20048;-64
2022/11/02 11:03:05;;;;;;;11.80;2.70;;;;;;;14.82;58.10;102060.25;5092860;28;20075;-64
2022/11/02 11:05:35;;;;;;;8.98;2.20;;;;;;;14.84;58.39;102065.44;5085691;28;20048;-64
2022/11/02 11:08:05;;;;;;;12.80;3.80;;;;;;;14.86;57.79;102057.94;5086037;28;20067;-65
2022/11/02 11:10:38;;;;;;;9.77;2.45;;;;;;;14.86;57.98;102056.06;5085914;28;20040;-65
2022/11/02 11:13:07;;;;;;;6.75;1.70;;;;;;;14.83;57.60;102053.78;5092445;28;20058;-65
2022/11/02 11:15:54;;;;;;;8.60;2.20;;;;;;;14.86;57.38;102053.34;5089678;28;20047;-65
2022/11/02 11:18:22;;;;;;;9.07;1.85;;;;;;;14.88;57.93;102048.53;5084949;28;20505;-64
2022/11/02 11:21:10;;;;;;;12.68;2.35;;;;;;;14.91;57.99;102056.22;5086873;28;20513;-64
2022/11/02 11:23:38;;;;;;;6.47;1.95;;;;;;;14.95;58.72;102052.03;5100673;28;20052;-64
2022/11/02 11:26:25;;;;;;;10.73;2.22;;;;;;;15.06;59.51;102060.47;5087981;28;20057;-65
2022/11/02 11:28:58;;;;;;;12.00;2.13;;;;;;;15.03;57.24;102066.34;5095391;28;20047;-64
2022/11/02 11:31:26;;;;;;;8.35;2.30;;;;;;;15.01;57.14;102054.91;5096321;28;20490;-64
2022/11/02 11:33:56;;;;;;;13.45;3.25;;;;;;;15.01;56.98;102053.03;5085108;28;20054;-65
2022/11/02 11:36:27;;;;;;;10.38;2.15;;;;;;;14.99;56.73;102041.59;5084575;28;20050;-65
2022/11/02 11:38:58;;;;;;;11.13;2.67;;;;;;;15.09;58.10;102047.31;5088995;28;20070;-65
2022/11/02 11:41:28;;;;;;;15.25;3.15;;;;;;;15.09;57.86;102031.06;5090014;28;20043;-64
2022/11/02 11:43:57;;;;;;;10.30;2.33;;;;;;;15.09;57.76;102024.84;5089887;28;20052;-65
2022/11/02 11:46:39;;;;;;;9.95;1.80;;;;;;;15.09;57.39;102022.97;5090368;28;20083;-64
2022/11/02 11:49:21;;;;;;;11.40;2.35;;;;;;;15.09;57.43;102030.25;5085806;28;20044;-65
2022/11/02 11:52:19;;;;;;;9.57;2.00;;;;;;;15.11;57.34;102034.38;5095869;28;20053;-65